Time;durP1;ratioP1;P1;durP2;ratioP2;P2;SDS_P1;SDS_P2;PMS_P1;PMS_P2;Temp;Humidity;BMP_temperature;BMP_pressure;BME280_temperature;BME280_humidity;BME280_pressure;Samples;Min_cycle;Max_cycle;Signal;HPM_P1;HPM_P2
2021/12/03 00:01:21;;;;;;;7.80;1.87;;;1.60;99.90;;;;;;5008098;28;20211;-80
2021/12/03 00:03:50;;;;;;;5.00;1.70;;;1.60;99.90;;;;;;5009974;28;20207;-83
2021/12/03 00:06:17;;;;;;;2.93;1.60;;;1.60;99.90;;;;;;5008450;28;20211;-81
2021/12/03 00:08:44;;;;;;;8.13;2.40;;;1.60;99.90;;;;;;5009485;28;20210;-83
2021/12/03 00:11:13;;;;;;;3.70;1.73;;;1.60;99.90;;;;;;5008714;28;20226;-84
2021/12/03 00:13:41;;;;;;;7.17;1.97;;;1.60;99.90;;;;;;5008163;28;20226;-82
2021/12/03 00:16:08;;;;;;;4.63;1.50;;;1.60;99.90;;;;;;5026949;28;20233;-80
2021/12/03 00:18:36;;;;;;;9.47;2.00;;;1.60;99.90;;;;;;5027814;28;20206;-79
2021/12/03 00:21:07;;;;;;;6.13;2.33;;;1.60;99.90;;;;;;5028565;28;20202;-81
2021/12/03 00:23:35;;;;;;;8.63;1.93;;;1.60;99.90;;;;;;5028348;28;20222;-83
2021/12/03 00:26:03;;;;;;;4.50;2.07;;;1.50;99.90;;;;;;5028432;28;20225;-82
2021/12/03 00:28:30;;;;;;;5.83;1.80;;;1.50;99.90;;;;;;5026785;28;20229;-81
2021/12/03 00:30:57;;;;;;;3.30;1.20;;;1.50;99.90;;;;;;4999771;28;20211;-82
2021/12/03 00:33:25;;;;;;;3.90;1.80;;;1.50;99.90;;;;;;5007385;28;20235;-80
2021/12/03 00:35:53;;;;;;;3.57;1.80;;;1.50;99.90;;;;;;5013855;28;20293;-83
2021/12/03 00:38:21;;;;;;;6.90;2.33;;;1.50;99.90;;;;;;5027419;28;20568;-83
2021/12/03 00:40:48;;;;;;;4.73;1.80;;;1.50;99.90;;;;;;5022675;28;20207;-80
2021/12/03 00:43:15;;;;;;;4.23;1.80;;;1.50;99.90;;;;;;5008078;28;20203;-80
2021/12/03 00:45:44;;;;;;;11.00;1.67;;;1.50;99.90;;;;;;5008609;28;20234;-80
2021/12/03 00:48:11;;;;;;;9.50;1.90;;;1.50;99.90;;;;;;5006937;28;20208;-80
2021/12/03 00:50:38;;;;;;;5.13;2.17;;;1.50;99.90;;;;;;5006783;28;20210;-82
2021/12/03 00:53:05;;;;;;;5.13;1.83;;;1.50;99.90;;;;;;5006711;28;20206;-81
2021/12/03 00:55:34;;;;;;;7.43;2.17;;;1.50;99.90;;;;;;5004859;28;20207;-80
2021/12/03 00:58:01;;;;;;;7.20;1.60;;;1.50;99.90;;;;;;5006526;28;20218;-80
2021/12/03 01:00:29;;;;;;;6.93;2.07;;;1.50;99.90;;;;;;5009772;28;20211;-81
2021/12/03 01:02:58;;;;;;;3.37;1.50;;;1.50;99.90;;;;;;5010242;28;20298;-79
2021/12/03 01:05:26;;;;;;;7.77;1.83;;;1.50;99.90;;;;;;5009178;28;20227;-78
2021/12/03 01:07:52;;;;;;;6.27;1.70;;;1.60;99.90;;;;;;5010454;28;20203;-79
2021/12/03 01:10:20;;;;;;;4.87;1.60;;;1.60;99.90;;;;;;5009863;28;20515;-81
2021/12/03 01:12:48;;;;;;;8.43;2.43;;;1.70;99.90;;;;;;5009180;28;20517;-79
2021/12/03 01:15:20;;;;;;;8.90;2.23;;;1.70;99.90;;;;;;5009983;28;20238;-79
2021/12/03 01:17:47;;;;;;;3.23;1.70;;;1.80;99.90;;;;;;5010272;28;20921;-80
2021/12/03 01:20:15;;;;;;;7.17;2.30;;;1.80;99.90;;;;;;5009253;28;20282;-82
2021/12/03 01:22:45;;;;;;;5.73;2.10;;;1.80;99.90;;;;;;5009232;28;20202;-81
2021/12/03 01:25:13;;;;;;;9.10;2.50;;;1.90;99.90;;;;;;5010037;28;20227;-81
2021/12/03 01:27:40;;;;;;;9.57;2.13;;;1.90;99.90;;;;;;5009281;28;20223;-81
2021/12/03 01:30:12;;;;;;;15.40;3.43;;;1.90;99.90;;;;;;5009355;28;20211;-80
2021/12/03 01:32:39;;;;;;;6.17;2.13;;;2.00;99.90;;;;;;5010274;28;20234;-83
2021/12/03 01:35:08;;;;;;;9.30;2.27;;;2.00;99.90;;;;;;5010540;28;20210;-81
2021/12/03 01:37:36;;;;;;;10.73;3.77;;;2.10;99.90;;;;;;4991905;28;20211;-78
2021/12/03 01:40:04;;;;;;;8.50;1.77;;;2.00;99.90;;;;;;5009119;28;20506;-81
2021/12/03 01:42:31;;;;;;;5.13;2.20;;;2.10;99.90;;;;;;5009652;28;20199;-80
2021/12/03 01:44:58;;;;;;;7.00;2.10;;;2.10;99.90;;;;;;5009792;28;20219;-81
2021/12/03 01:47:26;;;;;;;5.03;2.00;;;2.10;99.90;;;;;;5009391;28;20199;-80
2021/12/03 01:49:53;;;;;;;6.63;2.03;;;2.10;99.90;;;;;;5010231;28;20203;-82
2021/12/03 01:52:20;;;;;;;17.13;2.43;;;2.00;99.90;;;;;;5009735;28;20203;-83
2021/12/03 01:54:46;;;;;;;7.93;1.93;;;2.10;99.90;;;;;;5010624;28;20212;-82
2021/12/03 01:57:13;;;;;;;6.77;1.90;;;2.10;99.90;;;;;;5010911;28;20206;-80
2021/12/03 01:59:40;;;;;;;4.50;1.90;;;2.10;99.90;;;;;;5009974;28;20211;-79
2021/12/03 02:02:08;;;;;;;8.23;2.23;;;2.10;99.90;;;;;;5009902;28;20214;-81
2021/12/03 02:04:37;;;;;;;8.37;2.27;;;2.10;99.90;;;;;;5008942;28;20225;-80
2021/12/03 02:07:04;;;;;;;10.70;2.70;;;2.10;99.90;;;;;;5009907;28;20207;-78
2021/12/03 02:09:31;;;;;;;4.43;1.80;;;2.10;99.90;;;;;;5008285;28;20603;-80
2021/12/03 02:11:58;;;;;;;5.30;2.30;;;2.10;99.90;;;;;;5009097;28;20218;-79
2021/12/03 02:14:25;;;;;;;6.73;1.97;;;2.10;99.90;;;;;;5010024;28;20235;-81
2021/12/03 02:16:52;;;;;;;7.47;1.93;;;2.10;99.90;;;;;;5010850;28;20218;-82
2021/12/03 02:19:18;;;;;;;10.27;1.80;;;2.10;99.90;;;;;;5009784;28;20214;-81
2021/12/03 02:21:47;;;;;;;5.90;1.97;;;2.20;99.90;;;;;;5010002;28;20642;-83
2021/12/03 02:24:15;;;;;;;8.00;1.90;;;2.20;99.90;;;;;;5010369;28;20215;-81
2021/12/03 02:26:42;;;;;;;10.33;2.00;;;2.20;99.90;;;;;;5009692;28;20645;-79
2021/12/03 02:29:09;;;;;;;5.03;1.53;;;2.20;99.90;;;;;;5009593;28;20203;-80
2021/12/03 02:31:36;;;;;;;8.53;1.77;;;2.30;99.90;;;;;;5009722;28;20307;-81
2021/12/03 02:34:03;;;;;;;6.93;1.53;;;2.30;99.90;;;;;;5009968;28;20203;-80
2021/12/03 02:36:30;;;;;;;13.73;2.20;;;2.30;99.90;;;;;;5008271;28;20211;-79
2021/12/03 02:38:58;;;;;;;4.00;1.77;;;2.30;99.90;;;;;;5009572;28;20207;-80
2021/12/03 02:41:25;;;;;;;4.13;1.80;;;2.40;99.90;;;;;;5007980;28;20226;-79
2021/12/03 02:43:53;;;;;;;5.33;1.80;;;2.40;99.90;;;;;;5009651;28;20207;-83
2021/12/03 02:46:20;;;;;;;4.07;1.40;;;2.40;99.90;;;;;;5008979;28;20231;-81
2021/12/03 02:48:46;;;;;;;11.40;2.37;;;2.40;99.90;;;;;;5010110;28;20196;-80
2021/12/03 02:51:14;;;;;;;5.37;1.60;;;2.50;99.90;;;;;;5008846;28;20210;-82
2021/12/03 02:53:41;;;;;;;10.43;1.77;;;2.50;99.90;;;;;;5008959;28;20195;-83
2021/12/03 02:56:10;;;;;;;4.23;1.47;;;2.50;99.90;;;;;;5010123;28;20199;-83
2021/12/03 02:58:37;;;;;;;7.80;1.53;;;2.60;99.90;;;;;;5008209;28;20226;-80
2021/12/03 03:01:06;;;;;;;3.50;1.50;;;2.60;99.90;;;;;;5008358;28;20203;-83
2021/12/03 03:03:33;;;;;;;6.50;1.53;;;2.60;99.90;;;;;;5008732;28;20206;-83
2021/12/03 03:06:03;;;;;;;7.73;1.83;;;2.60;99.90;;;;;;5009173;28;20222;-82
2021/12/03 03:08:31;;;;;;;8.93;2.43;;;2.60;99.90;;;;;;5008031;28;20203;-81
2021/12/03 03:11:00;;;;;;;8.10;2.37;;;2.70;99.90;;;;;;5008013;28;20207;-80
2021/12/03 03:13:29;;;;;;;5.80;1.90;;;2.80;99.90;;;;;;5008808;28;20204;-80
2021/12/03 03:15:56;;;;;;;9.53;1.87;;;2.90;99.90;;;;;;5023146;28;20237;-81
2021/12/03 03:18:26;;;;;;;9.83;2.10;;;3.00;99.90;;;;;;5026920;28;20206;-80
2021/12/03 03:20:54;;;;;;;9.67;2.00;;;3.10;99.90;;;;;;5022561;28;20477;-81
2021/12/03 03:23:22;;;;;;;14.93;4.30;;;3.10;99.90;;;;;;5006919;28;20199;-80
2021/12/03 03:25:50;;;;;;;22.43;7.17;;;3.30;99.90;;;;;;5009224;28;20905;-84
2021/12/03 03:28:18;;;;;;;23.23;8.87;;;3.40;99.90;;;;;;5008294;28;20215;-84
2021/12/03 03:30:48;;;;;;;25.93;9.17;;;3.40;99.90;;;;;;5008485;28;20206;-82
2021/12/03 03:33:16;;;;;;;27.10;9.90;;;3.50;99.90;;;;;;5008823;28;20238;-84
2021/12/03 03:35:43;;;;;;;23.20;8.50;;;3.60;99.90;;;;;;5009618;28;20603;-82
2021/12/03 03:38:10;;;;;;;17.63;6.37;;;3.70;99.90;;;;;;5011507;28;20203;-84
2021/12/03 03:40:39;;;;;;;9.80;3.00;;;3.70;99.90;;;;;;5028604;28;20195;-80
2021/12/03 03:43:06;;;;;;;8.63;2.07;;;3.80;99.90;;;;;;5025599;28;20260;-83
2021/12/03 03:45:34;;;;;;;7.17;2.13;;;3.80;99.90;;;;;;5012317;28;20246;-84
2021/12/03 03:48:05;;;;;;;7.20;2.67;;;3.80;99.90;;;;;;5009731;28;20207;-84
2021/12/03 03:50:32;;;;;;;8.40;1.87;;;3.90;99.90;;;;;;5008317;28;20215;-83
2021/12/03 03:53:00;;;;;;;5.20;1.60;;;3.90;99.90;;;;;;5009199;28;20215;-85
2021/12/03 03:55:28;;;;;;;5.60;1.50;;;4.00;99.90;;;;;;5007653;28;20207;-83
2021/12/03 03:57:58;;;;;;;8.50;1.83;;;4.00;99.90;;;;;;5007707;28;20203;-83
2021/12/03 04:00:30;;;;;;;6.53;2.33;;;4.00;99.90;;;;;;5007753;28;20322;-83
2021/12/03 04:02:57;;;;;;;5.87;2.03;;;4.00;99.90;;;;;;5009313;28;20203;-84
2021/12/03 04:05:26;;;;;;;9.50;2.30;;;4.00;99.90;;;;;;5007883;28;20766;-81
2021/12/03 04:07:53;;;;;;;11.23;3.23;;;4.10;99.90;;;;;;5008158;28;20203;-83
2021/12/03 04:10:19;;;;;;;9.13;2.77;;;4.10;99.90;;;;;;5014171;28;20210;-83
2021/12/03 04:12:47;;;;;;;11.23;3.00;;;4.20;99.90;;;;;;5026884;28;20275;-84
2021/12/03 04:15:14;;;;;;;15.00;3.67;;;4.30;99.90;;;;;;5025998;28;20284;-82
2021/12/03 04:17:41;;;;;;;17.63;2.93;;;4.40;99.90;;;;;;5014020;28;20211;-79
2021/12/03 04:20:13;;;;;;;20.10;4.17;;;4.60;99.90;;;;;;5010999;28;20192;-85
2021/12/03 04:22:42;;;;;;;20.07;3.83;;;4.70;99.90;;;;;;5011189;28;20665;-87
2021/12/03 04:25:13;;;;;;;15.40;2.30;;;4.80;99.90;;;;;;5023383;28;20615;-84
2021/12/03 04:27:40;;;;;;;11.33;2.50;;;5.00;99.90;;;;;;5030856;28;20508;-87
2021/12/03 04:30:10;;;;;;;17.97;2.70;;;5.10;99.90;;;;;;5029332;28;20474;-85
2021/12/03 04:32:37;;;;;;;11.33;2.67;;;5.20;99.90;;;;;;5029693;28;20238;-86
2021/12/03 04:35:05;;;;;;;10.63;2.87;;;5.20;99.90;;;;;;5029491;28;20724;-85
2021/12/03 04:37:32;;;;;;;5.53;1.73;;;5.30;99.90;;;;;;5028993;28;20603;-82
2021/12/03 04:40:00;;;;;;;13.40;2.60;;;5.30;99.90;;;;;;5030138;28;20229;-84
2021/12/03 04:42:27;;;;;;;21.67;4.10;;;5.30;99.90;;;;;;5023891;28;20222;-82
2021/12/03 04:44:54;;;;;;;9.33;1.93;;;5.40;99.90;;;;;;5010194;28;20195;-82
2021/12/03 04:47:20;;;;;;;7.67;2.40;;;5.40;99.90;;;;;;5009027;28;20623;-86
2021/12/03 04:49:47;;;;;;;7.23;2.70;;;5.50;99.90;;;;;;5010813;28;20257;-87
2021/12/03 04:52:14;;;;;;;11.43;2.30;;;5.50;99.90;;;;;;5010088;28;20196;-83
2021/12/03 04:54:42;;;;;;;5.77;2.47;;;5.60;99.90;;;;;;5010077;28;20924;-81
2021/12/03 04:57:10;;;;;;;5.37;1.80;;;5.60;99.90;;;;;;5009818;28;20208;-80
2021/12/03 04:59:37;;;;;;;11.80;2.20;;;5.60;99.90;;;;;;5009780;28;20207;-87
2021/12/03 05:02:04;;;;;;;16.43;2.77;;;5.60;99.90;;;;;;5008704;28;20215;-87
2021/12/03 05:04:37;;;;;;;9.70;2.10;;;5.60;99.90;;;;;;5009082;28;20214;-82
2021/12/03 05:07:26;;;;;;;8.90;2.93;;;5.70;99.90;;;;;;5007571;28;20889;-80
2021/12/03 05:09:53;;;;;;;14.60;4.70;;;5.70;99.90;;;;;;5007010;28;20215;-82
2021/12/03 05:12:22;;;;;;;11.80;2.90;;;5.80;99.90;;;;;;5007535;28;20203;-83
2021/12/03 05:14:49;;;;;;;11.63;2.77;;;5.70;99.90;;;;;;5006658;28;20326;-86
2021/12/03 05:17:15;;;;;;;10.33;3.00;;;5.80;99.90;;;;;;5007227;28;20901;-80
2021/12/03 05:19:42;;;;;;;7.37;2.00;;;5.80;99.90;;;;;;5008808;28;20218;-84
2021/12/03 05:22:10;;;;;;;11.73;2.77;;;5.80;99.90;;;;;;5008867;28;20219;-86
2021/12/03 05:24:37;;;;;;;8.27;2.80;;;5.80;99.90;;;;;;5008312;28;20349;-83
2021/12/03 05:27:05;;;;;;;10.57;2.90;;;5.80;99.90;;;;;;5007657;28;20223;-86
2021/12/03 05:29:33;;;;;;;7.67;2.67;;;5.80;99.90;;;;;;5005323;28;20214;-85
2021/12/03 05:32:00;;;;;;;11.07;2.87;;;5.90;99.90;;;;;;5006550;28;20777;-81
2021/12/03 05:34:26;;;;;;;12.20;3.37;;;5.80;99.90;;;;;;5006622;28;20215;-82
2021/12/03 05:36:53;;;;;;;9.40;2.80;;;5.90;99.90;;;;;;5005927;28;20222;-81
2021/12/03 05:39:20;;;;;;;7.03;2.30;;;5.90;99.90;;;;;;5006161;28;20207;-83
2021/12/03 05:41:47;;;;;;;8.60;3.00;;;5.90;99.90;;;;;;5006836;28;20584;-83
2021/12/03 05:44:14;;;;;;;8.43;2.73;;;6.00;99.90;;;;;;5005937;28;20203;-81
2021/12/03 05:46:42;;;;;;;7.63;2.90;;;5.90;99.90;;;;;;5009678;28;20233;-81
2021/12/03 05:49:09;;;;;;;11.37;2.60;;;6.00;99.90;;;;;;5009940;28;20489;-81
2021/12/03 05:51:37;;;;;;;8.30;2.70;;;6.00;99.90;;;;;;5008610;28;20521;-81
2021/12/03 05:54:04;;;;;;;10.67;3.00;;;6.00;99.90;;;;;;5009199;28;20211;-83
2021/12/03 05:56:31;;;;;;;16.53;3.00;;;5.90;99.90;;;;;;5008524;28;20246;-81
2021/12/03 05:58:57;;;;;;;12.03;3.37;;;5.90;99.90;;;;;;5009967;28;20250;-81
2021/12/03 06:01:24;;;;;;;8.33;1.83;;;5.90;99.90;;;;;;5009356;28;20207;-81
2021/12/03 06:03:52;;;;;;;4.77;1.73;;;6.00;99.90;;;;;;5009629;28;20215;-85
2021/12/03 06:06:19;;;;;;;8.77;2.17;;;5.90;99.90;;;;;;5009703;28;20568;-83
2021/12/03 06:08:46;;;;;;;11.83;3.03;;;5.90;99.90;;;;;;5009995;28;20211;-81
2021/12/03 06:11:13;;;;;;;9.47;2.43;;;5.80;99.90;;;;;;5009848;28;20214;-80
2021/12/03 06:13:42;;;;;;;10.70;3.40;;;5.80;99.90;;;;;;5010170;28;20214;-81
2021/12/03 06:16:11;;;;;;;12.67;2.97;;;5.80;99.90;;;;;;5010179;28;20544;-83
2021/12/03 06:18:38;;;;;;;10.93;2.50;;;5.80;99.90;;;;;;5009504;28;20207;-82
2021/12/03 06:21:08;;;;;;;7.70;2.60;;;5.80;99.90;;;;;;5009742;28;20619;-80
2021/12/03 06:23:36;;;;;;;12.70;2.70;;;5.90;99.90;;;;;;5009805;28;20207;-83
2021/12/03 06:26:05;;;;;;;6.93;2.73;;;5.90;99.90;;;;;;5009214;28;20215;-85
2021/12/03 06:28:32;;;;;;;7.03;2.77;;;6.00;99.90;;;;;;5009310;28;20203;-81
2021/12/03 06:31:00;;;;;;;12.13;2.87;;;6.00;99.90;;;;;;5009395;28;20204;-83
2021/12/03 06:33:28;;;;;;;8.87;2.73;;;6.00;99.90;;;;;;5009146;28;20214;-83
2021/12/03 06:35:55;;;;;;;12.97;3.03;;;6.00;99.90;;;;;;5010027;28;20203;-84
2021/12/03 06:38:24;;;;;;;12.63;2.53;;;6.00;99.90;;;;;;5009065;28;20634;-84
2021/12/03 06:40:52;;;;;;;7.70;2.43;;;6.00;99.90;;;;;;5009682;28;20498;-81
2021/12/03 06:43:19;;;;;;;10.43;3.13;;;6.00;99.90;;;;;;5009011;28;20211;-81
2021/12/03 06:45:46;;;;;;;11.53;2.83;;;6.00;99.90;;;;;;5008351;28;20482;-83
2021/12/03 06:48:14;;;;;;;10.77;3.10;;;6.00;99.90;;;;;;5008904;28;20207;-79
2021/12/03 06:50:42;;;;;;;9.70;2.50;;;6.00;99.90;;;;;;5009284;28;20211;-81
2021/12/03 06:53:11;;;;;;;7.43;2.70;;;6.10;99.90;;;;;;5009246;28;20222;-79
2021/12/03 06:55:45;;;;;;;4.93;2.00;;;6.00;99.90;;;;;;5008917;28;20261;-82
2021/12/03 06:58:13;;;;;;;11.27;2.47;;;6.00;99.90;;;;;;5008876;28;20498;-81
2021/12/03 07:00:40;;;;;;;11.03;2.30;;;6.00;99.90;;;;;;5007551;28;20198;-81
2021/12/03 07:03:07;;;;;;;10.97;2.77;;;6.00;99.90;;;;;;5007870;28;20187;-82
2021/12/03 07:05:34;;;;;;;9.67;2.90;;;6.00;99.90;;;;;;5007224;28;20221;-80
2021/12/03 07:08:04;;;;;;;8.77;2.17;;;6.10;99.90;;;;;;5007890;28;20231;-80
2021/12/03 07:10:32;;;;;;;7.07;1.80;;;6.10;99.90;;;;;;5007394;28;20219;-81
2021/12/03 07:13:00;;;;;;;4.67;1.97;;;6.10;99.90;;;;;;5008137;28;20214;-79
2021/12/03 07:15:27;;;;;;;13.37;3.57;;;6.10;99.90;;;;;;5016607;28;20258;-79
2021/12/03 07:17:55;;;;;;;9.07;3.33;;;6.20;99.90;;;;;;5027718;28;20202;-82
2021/12/03 07:20:24;;;;;;;12.00;4.57;;;6.10;99.90;;;;;;5013131;28;20243;-80
2021/12/03 07:22:51;;;;;;;13.37;2.97;;;6.10;99.90;;;;;;5008067;28;20215;-82
2021/12/03 07:25:19;;;;;;;10.80;2.33;;;6.10;99.90;;;;;;5007505;28;20203;-81
2021/12/03 07:27:45;;;;;;;9.40;2.67;;;6.00;99.90;;;;;;5008688;28;20318;-80
2021/12/03 07:30:15;;;;;;;13.43;3.03;;;6.10;99.90;;;;;;5006707;28;20199;-79
2021/12/03 07:32:42;;;;;;;12.07;3.13;;;6.10;99.90;;;;;;5008183;28;20673;-79
2021/12/03 07:35:11;;;;;;;12.70;3.20;;;6.00;99.90;;;;;;5007785;28;20211;-80
2021/12/03 07:37:38;;;;;;;11.57;2.90;;;6.10;99.90;;;;;;5008720;28;20198;-80
2021/12/03 07:40:07;;;;;;;14.70;3.40;;;6.10;99.90;;;;;;5008902;28;20211;-81
2021/12/03 07:42:35;;;;;;;14.03;2.33;;;6.10;99.90;;;;;;5011179;28;20207;-84
2021/12/03 07:45:02;;;;;;;9.30;1.97;;;6.10;99.90;;;;;;5015862;28;20199;-80
2021/12/03 07:47:31;;;;;;;9.83;2.10;;;6.10;99.90;;;;;;5008118;28;20960;-84
2021/12/03 07:49:57;;;;;;;7.10;2.90;;;6.10;99.90;;;;;;5015475;22;20257;-81
2021/12/03 07:52:25;;;;;;;11.03;3.10;;;6.20;99.90;;;;;;5017644;28;20301;-82
2021/12/03 07:54:52;;;;;;;10.20;2.60;;;6.20;99.90;;;;;;5009587;28;20206;-79
2021/12/03 07:57:19;;;;;;;7.77;2.33;;;6.20;99.90;;;;;;5008636;28;20202;-81
2021/12/03 07:59:46;;;;;;;6.27;2.23;;;6.20;99.90;;;;;;5009572;28;20875;-85
2021/12/03 08:02:13;;;;;;;8.57;2.07;;;6.20;99.90;;;;;;5009454;28;20220;-84
2021/12/03 08:04:41;;;;;;;7.13;1.93;;;6.20;99.90;;;;;;5020358;28;20205;-81
2021/12/03 08:07:30;;;;;;;6.80;1.73;;;6.20;99.90;;;;;;5018496;28;20810;-88
2021/12/03 08:09:57;;;;;;;7.33;2.53;;;6.30;99.90;;;;;;5029094;28;20198;-83
2021/12/03 08:12:24;;;;;;;5.40;1.83;;;6.30;99.90;;;;;;5030904;28;20265;-83
2021/12/03 08:14:51;;;;;;;5.40;2.27;;;6.30;99.90;;;;;;5037237;28;20210;-85
2021/12/03 08:17:17;;;;;;;9.13;3.30;;;6.40;99.90;;;;;;5033795;28;20217;-88
2021/12/03 08:19:45;;;;;;;10.87;2.10;;;6.40;99.90;;;;;;5034418;28;20202;-82
2021/12/03 08:22:12;;;;;;;5.33;2.13;;;6.40;99.90;;;;;;5030222;28;20297;-82
2021/12/03 08:24:39;;;;;;;7.90;2.40;;;6.30;99.90;;;;;;5023517;28;20209;-83
2021/12/03 08:27:06;;;;;;;8.30;2.20;;;6.30;99.90;;;;;;5028169;28;20222;-81
2021/12/03 08:29:34;;;;;;;7.10;2.30;;;6.40;99.90;;;;;;5026578;28;20218;-82
2021/12/03 08:32:01;;;;;;;5.50;1.53;;;6.40;99.90;;;;;;5019821;28;20227;-83
2021/12/03 08:34:27;;;;;;;8.13;2.13;;;6.40;99.90;;;;;;5005638;28;20226;-84
2021/12/03 08:36:56;;;;;;;6.07;1.77;;;6.30;99.90;;;;;;5006473;28;20203;-80
2021/12/03 08:39:23;;;;;;;10.63;1.87;;;6.40;99.90;;;;;;5005892;28;20262;-83
2021/12/03 08:41:49;;;;;;;5.30;1.40;;;6.40;99.90;;;;;;5006052;28;20566;-79
2021/12/03 08:44:16;;;;;;;6.93;1.80;;;6.40;99.90;;;;;;5001159;28;20206;-83
2021/12/03 08:46:43;;;;;;;5.70;1.90;;;6.40;99.90;;;;;;5016718;28;20226;-85
2021/12/03 08:49:14;;;;;;;5.60;2.20;;;6.40;99.90;;;;;;5008102;28;20635;-84
2021/12/03 08:57:14;;;;;;;5.07;1.30;;;6.40;99.90;;;;;;5008900;28;20210;-86
2021/12/03 08:59:41;;;;;;;4.53;1.30;;;6.40;99.90;;;;;;5008601;28;20584;-84
2021/12/03 09:02:08;;;;;;;6.20;2.53;;;6.40;99.90;;;;;;5008886;28;20207;-85
2021/12/03 09:04:35;;;;;;;7.73;2.00;;;6.30;99.90;;;;;;5009324;28;20213;-83
2021/12/03 09:07:03;;;;;;;5.27;1.30;;;6.30;99.90;;;;;;5008933;28;20219;-86
2021/12/03 09:09:32;;;;;;;4.20;1.23;;;6.30;99.90;;;;;;5008656;28;20924;-80
2021/12/03 09:12:00;;;;;;;9.37;1.80;;;6.20;99.90;;;;;;5009475;28;20203;-82
2021/12/03 09:14:31;;;;;;;11.33;2.10;;;6.20;99.90;;;;;;5008192;28;20843;-82
2021/12/03 09:17:06;;;;;;;10.00;3.27;;;6.20;99.90;;;;;;5008995;28;20238;-84
2021/12/03 09:19:35;;;;;;;7.73;1.20;;;6.10;99.90;;;;;;5008867;28;20615;-82
2021/12/03 09:22:03;;;;;;;9.40;1.83;;;6.10;99.90;;;;;;5011836;28;20223;-81
2021/12/03 09:24:34;;;;;;;8.17;3.47;;;6.10;99.90;;;;;;4996095;28;20211;-84
2021/12/03 09:27:01;;;;;;;7.27;2.40;;;6.00;99.90;;;;;;4992846;28;20220;-84
2021/12/03 09:29:31;;;;;;;8.67;2.30;;;5.90;99.90;;;;;;5006773;28;20207;-85
2021/12/03 09:31:59;;;;;;;7.00;2.57;;;5.80;99.90;;;;;;5013918;28;20211;-87
2021/12/03 09:34:28;;;;;;;10.67;2.60;;;5.70;99.90;;;;;;5013905;28;20211;-87
2021/12/03 09:36:55;;;;;;;8.57;2.63;;;5.50;99.90;;;;;;5013037;28;20214;-86
2021/12/03 09:39:23;;;;;;;8.50;2.77;;;5.50;99.90;;;;;;5012074;28;20254;-87
2021/12/03 09:41:53;;;;;;;5.60;2.47;;;5.40;99.90;;;;;;5013841;28;20265;-85
2021/12/03 09:44:22;;;;;;;6.07;2.60;;;5.40;99.90;;;;;;5020508;28;20226;-84
2021/12/03 09:46:50;;;;;;;7.13;2.67;;;5.40;99.90;;;;;;5019938;28;20214;-84
2021/12/03 09:49:34;;;;;;;5.07;2.53;;;5.30;99.90;;;;;;5011551;28;20235;-83
2021/12/03 09:52:09;;;;;;;4.20;2.33;;;5.30;99.90;;;;;;5013435;28;20206;-85
2021/12/03 09:54:40;;;;;;;4.90;2.40;;;5.30;99.90;;;;;;5013294;28;20572;-84
2021/12/03 09:57:11;;;;;;;6.03;3.37;;;5.20;99.90;;;;;;5013048;28;20210;-83
2021/12/03 10:02:36;;;;;;;7.03;3.10;;;5.20;99.90;;;;;;4993866;28;20206;-85
2021/12/03 10:14:16;;;;;;;9.93;3.20;;;5.00;99.90;;;;;;4985749;28;20210;-84
2021/12/03 10:17:02;;;;;;;6.60;3.67;;;5.00;99.90;;;;;;5005078;28;20619;-84
2021/12/03 10:19:48;;;;;;;6.00;3.10;;;5.00;99.90;;;;;;5012163;28;20209;-85
2021/12/03 10:22:34;;;;;;;9.67;2.83;;;5.00;99.90;;;;;;5013238;28;20196;-85
2021/12/03 10:28:09;;;;;;;13.83;4.37;;;5.00;99.90;;;;;;4978910;28;20223;-82
2021/12/03 10:31:16;;;;;;;6.97;3.20;;;5.00;99.90;;;;;;5010374;28;20214;-83
2021/12/03 10:36:47;;;;;;;11.63;2.80;;;5.00;99.90;;;;;;4970604;28;20211;-84
2021/12/03 10:39:27;;;;;;;9.57;3.30;;;5.10;99.90;;;;;;5011630;28;20203;-83
2021/12/03 10:42:07;;;;;;;9.20;3.30;;;5.10;99.90;;;;;;5012091;28;20290;-84
2021/12/03 10:44:51;;;;;;;8.67;2.77;;;5.10;99.90;;;;;;5010856;28;20295;-85
2021/12/03 10:47:37;;;;;;;11.47;3.13;;;5.10;99.90;;;;;;5011661;28;20215;-84
2021/12/03 10:50:12;;;;;;;11.20;3.10;;;5.10;99.90;;;;;;5011941;28;20785;-83
2021/12/03 10:52:52;;;;;;;12.37;3.83;;;5.10;99.90;;;;;;5008469;28;20289;-82
2021/12/03 10:58:35;;;;;;;9.27;3.20;;;5.20;99.90;;;;;;5011546;28;20198;-86
2021/12/03 11:01:33;;;;;;;6.50;2.97;;;5.20;99.90;;;;;;5000605;28;20216;-84
2021/12/03 11:07:09;;;;;;;8.73;4.00;;;5.30;99.90;;;;;;4990188;28;20608;-81
2021/12/03 11:40:44;;;;;;;15.17;4.40;;;5.30;99.90;;;;;;5008341;28;20217;-80
2021/12/03 12:16:22;;;;;;;5.87;3.27;;;5.50;99.90;;;;;;5009138;28;20237;-87
2021/12/03 13:25:34;;;;;;;10.87;4.83;;;5.90;99.90;;;;;;5126765;27;20247;-81
2021/12/03 14:38:17;;;;;;;16.33;7.77;;;6.00;99.90;;;;;;5061225;28;20266;-81
2021/12/03 14:43:48;;;;;;;12.00;7.43;;;6.00;99.90;;;;;;5052123;28;20208;-83
2021/12/03 14:46:35;;;;;;;11.47;8.17;;;6.00;99.90;;;;;;5053669;28;20297;-82
2021/12/03 14:49:25;;;;;;;14.07;8.20;;;5.90;99.90;;;;;;5063443;28;20201;-82
2021/12/03 14:54:51;;;;;;;11.93;8.00;;;5.90;99.90;;;;;;5062830;28;20319;-81
2021/12/03 14:57:36;;;;;;;11.40;7.37;;;5.90;99.90;;;;;;5063717;28;20210;-83
2021/12/03 15:00:16;;;;;;;13.30;8.07;;;5.90;99.90;;;;;;5062623;28;20225;-81
2021/12/03 15:03:07;;;;;;;10.37;7.90;;;5.90;99.90;;;;;;5064171;28;20201;-81
2021/12/03 15:08:28;;;;;;;11.83;7.93;;;5.90;99.90;;;;;;5062479;28;20205;-81
2021/12/03 15:19:42;;;;;;;10.37;7.23;;;5.90;99.90;;;;;;5050203;28;20263;-84
2021/12/03 15:22:25;;;;;;;11.00;8.03;;;5.90;99.90;;;;;;5048480;28;20608;-83
2021/12/03 15:25:03;;;;;;;9.73;7.33;;;5.90;99.90;;;;;;5048994;28;20252;-81
2021/12/03 15:33:00;;;;;;;13.80;7.87;;;5.90;99.90;;;;;;5049601;28;20236;-80
2021/12/03 15:35:33;;;;;;;8.10;7.30;;;5.90;99.90;;;;;;5049827;28;20213;-81
2021/12/03 16:08:30;;;;;;;15.17;11.10;;;6.10;99.90;;;;;;5037345;28;20479;-82
2021/12/03 16:11:07;;;;;;;13.87;11.17;;;6.10;99.90;;;;;;5048207;28;20198;-83
2021/12/03 16:13:49;;;;;;;13.90;11.90;;;6.10;99.90;;;;;;5048711;28;20297;-82
2021/12/03 16:16:51;;;;;;;17.03;12.67;;;6.10;99.90;;;;;;5029675;28;20226;-84
2021/12/03 16:19:25;;;;;;;13.20;10.80;;;6.10;99.90;;;;;;5028057;28;20523;-81
2021/12/03 16:25:06;;;;;;;13.83;11.63;;;6.10;99.90;;;;;;5019640;28;20288;-87
2021/12/03 16:44:22;;;;;;;14.67;12.50;;;6.10;99.90;;;;;;5032572;28;20194;-82
2021/12/03 16:50:03;;;;;;;14.63;13.13;;;6.10;99.90;;;;;;5050961;28;20295;-87
2021/12/03 16:52:31;;;;;;;17.03;13.83;;;6.20;99.90;;;;;;5050855;28;20206;-89
2021/12/03 16:55:00;;;;;;;16.03;14.20;;;6.10;99.90;;;;;;5052589;28;20546;-87
2021/12/03 16:57:31;;;;;;;15.83;14.20;;;6.10;99.90;;;;;;5048279;28;20198;-84
2021/12/03 17:00:00;;;;;;;15.83;14.13;;;6.10;99.90;;;;;;5032354;28;20673;-83
2021/12/03 17:02:35;;;;;;;17.07;14.80;;;6.10;99.90;;;;;;5037414;28;20212;-84
2021/12/03 17:05:19;;;;;;;18.93;15.00;;;6.10;99.90;;;;;;5174516;22;20700;-85
2021/12/03 17:13:51;;;;;;;18.80;16.10;;;6.10;99.90;;;;;;5009638;28;20211;-86
2021/12/03 17:16:55;;;;;;;16.47;14.77;;;6.10;99.90;;;;;;4992358;28;20199;-87
2021/12/03 17:44:41;;;;;;;19.97;17.77;;;6.10;99.90;;;;;;4989948;28;20223;-83
2021/12/03 17:49:53;;;;;;;21.60;17.93;;;6.10;99.90;;;;;;4988547;28;20191;-83
2021/12/03 17:52:46;;;;;;;22.30;18.57;;;6.10;99.90;;;;;;4978849;28;20209;-84
2021/12/03 17:55:24;;;;;;;19.90;17.80;;;6.10;99.90;;;;;;4967367;28;20723;-78
2021/12/03 17:57:54;;;;;;;20.97;18.60;;;6.10;99.90;;;;;;4980364;28;20298;-83
2021/12/03 18:00:28;;;;;;;22.20;19.90;;;6.10;99.90;;;;;;4989085;28;20222;-87
2021/12/03 18:03:02;;;;;;;21.00;18.73;;;6.10;99.90;;;;;;4988904;28;20215;-81
2021/12/03 18:08:19;;;;;;;23.50;20.03;;;6.20;99.90;;;;;;4988286;28;20219;-81
2021/12/03 18:16:35;;;;;;;21.77;19.47;;;6.10;99.90;;;;;;4969531;28;20203;-78
2021/12/03 18:19:33;;;;;;;23.10;19.97;;;6.10;99.90;;;;;;4969986;28;20550;-82
2021/12/03 18:49:39;;;;;;;22.07;19.63;;;6.10;99.90;;;;;;4992782;28;20283;-85
2021/12/03 23:26:28;;;;;;;42.67;27.00;;;6.00;99.90;;;;;;5081606;23;20233;-80
2021/12/03 23:28:54;;;;;;;43.53;27.07;;;6.00;99.90;;;;;;4933709;29;20216;-82
2021/12/03 23:31:22;;;;;;;49.03;29.13;;;6.00;99.90;;;;;;4934120;29;20213;-82
2021/12/03 23:33:49;;;;;;;45.40;28.70;;;5.90;99.90;;;;;;4933537;29;20210;-80
2021/12/03 23:36:16;;;;;;;41.30;27.97;;;6.00;99.90;;;;;;4938149;29;20330;-80
2021/12/03 23:38:43;;;;;;;45.23;29.37;;;5.90;99.90;;;;;;4952185;29;20629;-81
2021/12/03 23:41:11;;;;;;;50.37;30.00;;;6.00;99.90;;;;;;4952855;29;20229;-82
2021/12/03 23:43:39;;;;;;;47.73;30.13;;;6.00;99.90;;;;;;4933884;29;20213;-81
2021/12/03 23:46:06;;;;;;;47.97;29.30;;;6.00;99.90;;;;;;4932896;29;20217;-80
2021/12/03 23:48:33;;;;;;;46.87;28.73;;;6.00;99.90;;;;;;4937178;29;20512;-80
2021/12/03 23:51:00;;;;;;;53.97;30.53;;;6.00;99.90;;;;;;4952978;29;20212;-80
2021/12/03 23:53:28;;;;;;;49.07;30.40;;;6.00;99.90;;;;;;5010826;23;20272;-82
2021/12/03 23:55:54;;;;;;;48.57;29.67;;;6.00;99.90;;;;;;5009979;28;20203;-81